Main page
METAR-TAF:

METAR-TAF

Airports :

Defence School of Transport

Leconfield, England

latitude: 53-52-37N, longitude: 0-26-15W, elevation: 7 m

Current weather observation

The report was made 25 minutes ago, at 00:50 UTC
Wind 15 kt from the West/Southwest
Temperature 5°C
Humidity 75%
Pressure 1010 hPa
Visibility 10 km or more

METAR: EGXV 180050Z AUTO 25015KT 9999 SCT037/// 05/01 Q1010

Time: 01:15 (01:15 UTC)


TAF: missing

Weather observations and forecasts of more than 4000 airports (METAR and TAF reports).

The available stations are represented by yellow and red dots on the map.

Hover mouse over dot to see the name of the station.

Then click to see weather observations and forecasts.

To change the map : click on the green buttons with a black cross to zoom in, on the green button with a dash to zoom out, or on the green arrows for adjacent maps.


METAR-TAF: